KLXT

Details ICAO KLXT
Name LEES SUMMIT MUNI
Region United States
Timezone America/Chicago (UTC-5.0)
Plans Departing 13
Arriving 4
Stats Elevation 1,004 ft / 306 m (AMSL)
Location 38.959663° -94.371287°
Runways 2
Magnetic Variation 1.476° E
Sunrise 2018-05-26 10:58:11 UTC / 2018-05-26 05:58:11 Local
Sunset 2018-05-27 01:33:48 UTC / 2018-05-26 20:33:48 Local
Advertisement - Login to hide

Runways

ID Width Length Bearing (true) Bearing (mag) Surface Threshold Offset Overrun Length
11 75 ft / 23 m 3,794 ft / 1,156 m 113.47° 111.99° Concrete 0 ft / 0 m 0 ft / 0 m
18 75 ft / 23 m 4,023 ft / 1,226 m 183.38° 181.90° Concrete 0 ft / 0 m 0 ft / 0 m
29 75 ft / 23 m 3,794 ft / 1,156 m 293.48° 292.00° Concrete 0 ft / 0 m 0 ft / 0 m
36 75 ft / 23 m 4,023 ft / 1,226 m 3.38° 1.90° Concrete 0 ft / 0 m 0 ft / 0 m

Map

Weather


0- 5 10 15 20 25 30 35+ Temperature / ° C

Clouds and Precipitation
Forecast for 2018-05-26 18:00 UTC. Updated 3 hours ago

Ground ~20,000 ft ~40,000 ft Winds

METAR

KLXT 261953Z AUTO 23007KT 10SM CLR 33/21 A2981 RMK AO2 SLP082 T03280211

TAF

Not found

Frequencies

Recorded 124.17 MHz ASOS
Clearance 118.45 MHz CLNC DEL
Unicom 122.80 MHz CTAF/UNICOM
Approach 119.00 MHz KANSAS CITY APP/DEP
Warning: Do not use this data for real-world aviation or navigation. No guarantee of current accuracy is given.